createdAt,value
2017-05-12T00:00:05.319Z,20.7
2017-05-12T00:02:05.022Z,20.7
2017-05-12T00:04:10.369Z,20.7
2017-05-12T00:06:07.626Z,20.7
2017-05-12T00:08:07.420Z,20.7
2017-05-12T00:10:05.548Z,20.7
2017-05-12T00:12:07.579Z,20.7
2017-05-12T00:14:10.552Z,20.7
2017-05-12T00:16:08.128Z,20.6
2017-05-12T00:18:07.564Z,20.6
2017-05-12T00:20:05.344Z,20.6
2017-05-12T00:22:07.893Z,20.6
2017-05-12T00:24:05.608Z,20.6
2017-05-12T00:26:05.876Z,20.6
2017-05-12T00:28:05.815Z,20.6
2017-05-12T00:30:05.519Z,20.6
2017-05-12T00:32:07.830Z,20.6
2017-05-12T00:34:05.864Z,20.6
2017-05-12T00:36:05.072Z,20.6
2017-05-12T00:38:07.328Z,20.6
2017-05-12T00:40:05.192Z,20.6
2017-05-12T00:42:10.230Z,20.5
2017-05-12T00:44:04.929Z,20.6
2017-05-12T00:46:09.834Z,20.5
2017-05-12T00:48:05.529Z,20.5
2017-05-12T00:50:05.215Z,20.6
2017-05-12T00:52:10.127Z,20.5
2017-05-12T00:54:04.939Z,20.5
2017-05-12T00:56:04.653Z,20.5
2017-05-12T00:58:12.683Z,20.5
2017-05-12T01:00:05.350Z,20.5
2017-05-12T01:02:05.118Z,20.5
2017-05-12T01:04:08.198Z,20.5
2017-05-12T01:06:04.959Z,20.5
2017-05-12T01:08:04.771Z,20.5
2017-05-12T01:10:05.853Z,20.5
2017-05-12T01:12:10.211Z,20.5
2017-05-12T01:14:05.269Z,20.5
2017-05-12T01:16:05.865Z,20.5
2017-05-12T01:18:04.773Z,20.5
2017-05-12T01:20:10.065Z,20.5
2017-05-12T01:22:07.449Z,20.5
2017-05-12T01:24:05.188Z,20.4
2017-05-12T01:26:09.933Z,20.5
2017-05-12T01:28:04.787Z,20.5
2017-05-12T01:30:05.671Z,20.5
2017-05-12T01:32:07.532Z,20.4
2017-05-12T01:34:10.031Z,20.4
2017-05-12T01:36:07.225Z,20.4
2017-05-12T01:38:04.995Z,20.4
2017-05-12T01:40:07.450Z,20.4
2017-05-12T01:42:04.744Z,20.4
2017-05-12T01:44:05.414Z,20.4
2017-05-12T01:46:05.448Z,20.4
2017-05-12T01:48:10.264Z,20.4
2017-05-12T01:50:04.952Z,20.4
2017-05-12T01:52:04.972Z,20.4
2017-05-12T01:54:04.706Z,20.4
2017-05-12T01:56:05.407Z,20.4
2017-05-12T01:58:17.582Z,20.4
2017-05-12T02:00:05.269Z,20.4
2017-05-12T02:02:05.304Z,20.4
2017-05-12T02:04:05.459Z,20.4
2017-05-12T02:06:07.666Z,20.4
2017-05-12T02:08:04.937Z,20.4
2017-05-12T02:10:04.802Z,20.4
2017-05-12T02:12:05.526Z,20.4
2017-05-12T02:14:05.221Z,20.4
2017-05-12T02:16:05.253Z,20.4
2017-05-12T02:18:04.938Z,20.4
2017-05-12T02:20:04.589Z,20.4
2017-05-12T02:22:05.642Z,20.4
2017-05-12T02:24:05.327Z,20.4
2017-05-12T02:26:05.571Z,20.4
2017-05-12T02:28:05.416Z,20.4
2017-05-12T02:30:07.129Z,20.4
2017-05-12T02:32:09.877Z,20.4
2017-05-12T02:34:05.896Z,20.3
2017-05-12T02:36:05.571Z,20.3
2017-05-12T02:38:05.288Z,20.3
2017-05-12T02:40:05.391Z,20.3
2017-05-12T02:42:05.050Z,20.3
2017-05-12T02:44:04.769Z,20.3
2017-05-12T02:46:05.771Z,20.3
2017-05-12T02:48:05.552Z,20.3
2017-05-12T02:50:05.457Z,20.3
2017-05-12T02:52:04.848Z,20.3
2017-05-12T02:54:05.091Z,20.3
2017-05-12T02:56:05.411Z,20.3
2017-05-12T02:58:05.297Z,20.3
2017-05-12T03:00:05.072Z,20.3
2017-05-12T03:02:04.774Z,20.3
2017-05-12T03:04:05.700Z,20.3
2017-05-12T03:06:08.265Z,20.3
2017-05-12T03:08:05.030Z,20.3
2017-05-12T03:10:07.417Z,20.3
2017-05-12T03:12:04.701Z,20.3
2017-05-12T03:14:05.379Z,20.4
2017-05-12T03:16:05.755Z,20.3
2017-05-12T03:18:04.642Z,20.3
2017-05-12T03:20:05.401Z,20.3
2017-05-12T03:22:05.929Z,20.3
2017-05-12T03:24:07.742Z,20.3
2017-05-12T03:26:05.508Z,20.3
2017-05-12T03:28:08.119Z,20.3
2017-05-12T03:30:04.852Z,20.3
2017-05-12T03:32:05.571Z,20.3
2017-05-12T03:34:05.546Z,20.3
2017-05-12T03:36:05.239Z,20.3
2017-05-12T03:38:05.274Z,20.3
2017-05-12T03:40:05.148Z,20.3
2017-05-12T03:42:07.939Z,20.3
2017-05-12T03:44:04.642Z,20.3
2017-05-12T03:46:08.174Z,20.3
2017-05-12T03:48:04.905Z,20.3
2017-05-12T03:50:07.141Z,20.3
2017-05-12T03:52:07.909Z,20.3
2017-05-12T03:54:04.950Z,20.3
2017-05-12T03:56:05.229Z,20.3
2017-05-12T03:58:05.061Z,20.3
2017-05-12T04:00:08.133Z,20.3
2017-05-12T04:02:05.335Z,20.3
2017-05-12T04:04:05.344Z,20.3
2017-05-12T04:06:07.635Z,20.3
2017-05-12T04:08:05.335Z,20.3
2017-05-12T04:10:05.186Z,20.3
2017-05-12T04:12:07.404Z,20.3
2017-05-12T04:14:05.206Z,20.3
2017-05-12T04:16:05.094Z,20.3
2017-05-12T04:18:05.012Z,20.3
2017-05-12T04:20:04.870Z,20.3
2017-05-12T04:22:05.937Z,20.3
2017-05-12T04:24:04.613Z,20.3
2017-05-12T04:26:05.676Z,20.3
2017-05-12T04:28:05.546Z,20.3
2017-05-12T04:30:05.240Z,20.3
2017-05-12T04:32:10.570Z,20.2
2017-05-12T04:34:05.581Z,20.2
2017-05-12T04:36:07.976Z,20.3
2017-05-12T04:38:05.224Z,20.3
2017-05-12T04:40:05.229Z,20.3
2017-05-12T04:42:05.212Z,20.3
2017-05-12T04:44:04.922Z,20.3
2017-05-12T04:46:13.962Z,20.3
2017-05-12T04:48:07.947Z,20.3
2017-05-12T04:50:04.774Z,20.3
2017-05-12T04:52:05.616Z,20.3
2017-05-12T04:54:04.830Z,20.3
2017-05-12T04:56:05.616Z,20.3
2017-05-12T04:58:05.621Z,20.3
2017-05-12T05:00:05.293Z,20.4
2017-05-12T05:02:04.973Z,20.4
2017-05-12T05:04:04.991Z,20.4
2017-05-12T05:06:04.658Z,20.3
2017-05-12T05:08:05.372Z,20.3
2017-05-12T05:10:05.385Z,20.4
2017-05-12T05:12:05.622Z,20.3
2017-05-12T05:14:07.488Z,20.4
2017-05-12T05:16:05.332Z,20.3
2017-05-12T05:18:12.874Z,20.4
2017-05-12T05:20:05.089Z,20.3
2017-05-12T05:22:05.424Z,20.4
2017-05-12T05:24:05.225Z,20.4
2017-05-12T05:26:07.995Z,20.4
2017-05-12T05:28:07.391Z,20.5
2017-05-12T05:30:12.860Z,20.5
2017-05-12T05:32:07.618Z,20.5
2017-05-12T05:34:05.461Z,20.5
2017-05-12T05:36:05.194Z,20.5
2017-05-12T05:38:04.907Z,20.5
2017-05-12T05:40:04.876Z,20.5
2017-05-12T05:42:08.075Z,20.6
2017-05-12T05:44:04.784Z,20.6
2017-05-12T05:46:07.716Z,20.6
2017-05-12T05:48:04.958Z,20.6
2017-05-12T05:50:04.669Z,20.6
2017-05-12T05:52:05.514Z,20.6
2017-05-12T05:54:05.245Z,20.6
2017-05-12T05:56:04.949Z,20.6
2017-05-12T05:58:04.850Z,20.6
2017-05-12T06:00:05.561Z,20.7
2017-05-12T06:02:05.686Z,20.7
2017-05-12T06:04:05.540Z,20.7
2017-05-12T06:06:15.458Z,20.7
2017-05-12T06:08:07.686Z,20.7
2017-05-12T06:10:05.658Z,20.7
2017-05-12T06:12:05.689Z,20.7
2017-05-12T06:14:08.078Z,20.8
2017-05-12T06:16:09.766Z,20.8
2017-05-12T06:18:05.283Z,20.8
2017-05-12T06:20:04.960Z,20.8
2017-05-12T06:22:04.920Z,20.9
2017-05-12T06:24:13.258Z,21
2017-05-12T06:26:04.998Z,21
2017-05-12T06:28:04.978Z,21
2017-05-12T06:30:09.762Z,21.1
2017-05-12T06:32:16.043Z,21.1
2017-05-12T06:34:09.876Z,21.2
2017-05-12T06:36:07.137Z,21.2
2017-05-12T06:38:05.345Z,21.2
2017-05-12T06:40:10.402Z,21.3
2017-05-12T06:42:05.109Z,21.3
2017-05-12T06:44:05.535Z,21.3
2017-05-12T06:46:05.592Z,21.3
2017-05-12T06:48:05.308Z,21.4
2017-05-12T06:50:05.604Z,21.4
2017-05-12T06:52:08.243Z,21.4
2017-05-12T06:54:05.021Z,21.4
2017-05-12T06:56:07.268Z,21.4
2017-05-12T06:58:05.296Z,21.4
2017-05-12T07:00:05.564Z,21.4
2017-05-12T07:02:12.850Z,21.5
2017-05-12T07:04:05.222Z,21.4
2017-05-12T07:06:07.747Z,21.4
2017-05-12T07:08:10.524Z,21.4
2017-05-12T07:10:05.538Z,21.4
2017-05-12T07:12:04.817Z,21.4
2017-05-12T07:14:05.549Z,21.4
2017-05-12T07:16:05.570Z,21.5
2017-05-12T07:18:10.146Z,21.5
2017-05-12T07:20:07.389Z,21.5
2017-05-12T07:22:05.441Z,21.5
2017-05-12T07:24:05.286Z,21.5
2017-05-12T07:26:05.200Z,21.5
2017-05-12T07:28:05.024Z,21.5
2017-05-12T07:30:04.801Z,21.5
2017-05-12T07:32:05.576Z,21.5
2017-05-12T07:34:05.606Z,21.5
2017-05-12T07:36:05.301Z,21.5
2017-05-12T07:38:05.329Z,21.5
2017-05-12T07:40:05.291Z,21.5
2017-05-12T07:42:07.513Z,21.6
2017-05-12T07:44:04.816Z,21.6
2017-05-12T07:46:05.915Z,21.6
2017-05-12T07:48:05.585Z,21.6
2017-05-12T07:50:05.316Z,21.7
2017-05-12T07:52:07.693Z,21.7
2017-05-12T07:54:05.583Z,21.7
2017-05-12T07:56:05.429Z,21.8
2017-05-12T07:58:07.500Z,21.8
2017-05-12T08:00:05.171Z,21.8
2017-05-12T08:02:04.897Z,21.9
2017-05-12T08:04:09.826Z,21.9
2017-05-12T08:06:05.583Z,21.9
2017-05-12T08:08:05.330Z,22
2017-05-12T08:10:05.164Z,22
2017-05-12T08:12:05.015Z,22
2017-05-12T08:14:04.854Z,22
2017-05-12T08:16:05.689Z,22
2017-05-12T08:18:05.605Z,22
2017-05-12T08:20:05.346Z,22
2017-05-12T08:22:05.379Z,22
2017-05-12T08:24:05.074Z,22
2017-05-12T08:26:08.186Z,22
2017-05-12T08:28:07.791Z,22
2017-05-12T08:30:05.562Z,22
2017-05-12T08:32:07.876Z,22
2017-05-12T08:34:08.414Z,22
2017-05-12T08:36:07.159Z,22
2017-05-12T08:38:04.887Z,22
2017-05-12T08:40:04.784Z,22
2017-05-12T08:42:05.577Z,21.9
2017-05-12T08:44:05.301Z,22
2017-05-12T08:46:12.959Z,22
2017-05-12T08:48:04.681Z,22
2017-05-12T08:50:05.448Z,22.1
2017-05-12T08:52:08.043Z,22.1
2017-05-12T08:54:04.986Z,22.1
2017-05-12T08:56:04.806Z,22.2
2017-05-12T08:58:05.769Z,22.2
2017-05-12T09:00:05.430Z,22.2
2017-05-12T09:02:07.710Z,22.2
2017-05-12T09:04:08.280Z,22.3
2017-05-12T09:06:05.011Z,22.3
2017-05-12T09:08:05.319Z,22.3
2017-05-12T09:10:05.630Z,22.3
2017-05-12T09:12:05.500Z,22.4
2017-05-12T09:14:05.485Z,22.3
2017-05-12T09:16:05.293Z,22.3
2017-05-12T09:18:05.244Z,22.3
2017-05-12T09:20:04.911Z,22.2
2017-05-12T09:22:05.695Z,22.2
2017-05-12T09:24:07.567Z,22.1
2017-05-12T09:26:04.841Z,22.1
2017-05-12T09:28:08.388Z,22.2
2017-05-12T09:30:05.906Z,22.1
2017-05-12T09:32:08.162Z,22.1
2017-05-12T09:34:07.533Z,22.1
2017-05-12T09:36:04.739Z,22.1
2017-05-12T09:38:04.983Z,22.1
2017-05-12T09:40:04.839Z,22.1
2017-05-12T09:42:05.761Z,22.1
2017-05-12T09:44:05.511Z,22.1
2017-05-12T09:46:05.577Z,22.1
2017-05-12T09:48:05.268Z,22.1
2017-05-12T09:50:05.459Z,22.1
2017-05-12T09:52:05.471Z,22.1
2017-05-12T09:54:05.181Z,22.1
2017-05-12T09:56:07.401Z,22.1
2017-05-12T09:58:05.441Z,22.1
2017-05-12T10:00:05.151Z,22.1
2017-05-12T10:02:05.202Z,22
2017-05-12T10:04:05.047Z,22
2017-05-12T10:06:05.275Z,22.1
2017-05-12T10:08:05.044Z,22.1
2017-05-12T10:10:04.846Z,22.1
2017-05-12T10:12:05.604Z,22.1
2017-05-12T10:14:05.274Z,22
2017-05-12T10:16:05.173Z,22.1
2017-05-12T10:18:05.203Z,22
2017-05-12T10:20:07.446Z,22.1
2017-05-12T10:22:05.358Z,22
2017-05-12T10:24:05.072Z,22
2017-05-12T10:26:05.297Z,22
2017-05-12T10:28:05.426Z,22
2017-05-12T10:30:07.203Z,22
2017-05-12T10:32:07.985Z,22
2017-05-12T10:34:05.402Z,22
2017-05-12T10:36:07.616Z,22
2017-05-12T10:38:05.494Z,22
2017-05-12T10:40:05.486Z,22
2017-05-12T10:42:05.192Z,22
2017-05-12T10:44:04.860Z,22
2017-05-12T10:46:05.743Z,22
2017-05-12T10:48:05.529Z,22
2017-05-12T10:50:05.556Z,22
2017-05-12T10:52:05.616Z,22
2017-05-12T10:54:05.319Z,22
2017-05-12T10:56:04.986Z,22
2017-05-12T10:58:07.362Z,22
2017-05-12T11:00:04.679Z,22
2017-05-12T11:02:07.879Z,22
2017-05-12T11:04:05.407Z,22
2017-05-12T11:06:07.787Z,22
2017-05-12T11:08:05.071Z,22
2017-05-12T11:10:07.647Z,22
2017-05-12T11:12:05.422Z,22
2017-05-12T11:14:07.174Z,22
2017-05-12T11:16:05.598Z,22
2017-05-12T11:18:07.596Z,22
2017-05-12T11:20:05.266Z,22
2017-05-12T11:22:05.258Z,22
2017-05-12T11:24:04.927Z,22
2017-05-12T11:26:04.704Z,22
2017-05-12T11:28:09.993Z,22
2017-05-12T11:30:04.715Z,22
2017-05-12T11:32:04.980Z,22
2017-05-12T11:34:05.516Z,22
2017-05-12T11:36:05.218Z,22
2017-05-12T11:38:05.572Z,22
2017-05-12T11:40:10.216Z,21.9
2017-05-12T11:42:04.967Z,22
2017-05-12T11:44:04.690Z,22
2017-05-12T11:46:05.535Z,22
2017-05-12T11:48:05.316Z,22
2017-05-12T11:50:12.624Z,22
2017-05-12T11:52:05.469Z,22.1
2017-05-12T11:54:05.466Z,22.1
2017-05-12T11:56:07.676Z,22
2017-05-12T11:58:05.537Z,22
2017-05-12T12:00:05.301Z,22
2017-05-12T12:02:07.640Z,22
2017-05-12T12:04:05.876Z,22
2017-05-12T12:06:05.610Z,22
2017-05-12T12:08:07.901Z,22
2017-05-12T12:10:05.973Z,22
2017-05-12T12:12:04.711Z,22
2017-05-12T12:14:05.465Z,22
2017-05-12T12:16:05.501Z,22
2017-05-12T12:18:04.961Z,22
2017-05-12T12:20:04.627Z,22
2017-05-12T12:22:05.623Z,22
2017-05-12T12:24:05.286Z,22
2017-05-12T12:26:12.903Z,22
2017-05-12T12:28:04.904Z,22
2017-05-12T12:30:04.639Z,22
2017-05-12T12:32:05.320Z,22
2017-05-12T12:34:04.767Z,22.1
2017-05-12T12:36:13.053Z,22.1
2017-05-12T12:38:04.784Z,22.1
2017-05-12T12:40:12.964Z,22.1
2017-05-12T12:42:05.349Z,22.1
2017-05-12T12:44:05.052Z,22.1
2017-05-12T12:46:05.076Z,22.1
2017-05-12T12:48:04.822Z,22.1
2017-05-12T12:50:05.576Z,22.1
2017-05-12T12:52:07.908Z,22.1
2017-05-12T12:54:04.700Z,22.1
2017-05-12T12:56:05.453Z,22.1
2017-05-12T12:58:05.375Z,22.1
2017-05-12T13:00:04.659Z,22.1
2017-05-12T13:02:07.928Z,22.1
2017-05-12T13:04:05.189Z,22.1
2017-05-12T13:06:05.739Z,22.1
2017-05-12T13:08:05.173Z,22.1
2017-05-12T13:10:05.628Z,22.1
2017-05-12T13:12:05.375Z,22.1
2017-05-12T13:14:04.764Z,22.1
2017-05-12T13:16:05.770Z,22.1
2017-05-12T13:18:04.697Z,22.1
2017-05-12T13:20:05.403Z,22.1
2017-05-12T13:22:05.369Z,22.1
2017-05-12T13:24:05.069Z,22.2
2017-05-12T13:26:04.762Z,22.2
2017-05-12T13:28:05.315Z,22.2
2017-05-12T13:30:05.168Z,22.2
2017-05-12T13:32:04.855Z,22.2
2017-05-12T13:34:05.522Z,22.2
2017-05-12T13:36:08.426Z,22.2
2017-05-12T13:38:08.973Z,22.2
2017-05-12T13:40:04.828Z,22.2
2017-05-12T13:42:05.037Z,22.3
2017-05-12T13:44:05.182Z,22.2
2017-05-12T13:46:05.862Z,22.3
2017-05-12T13:48:08.380Z,22.3
2017-05-12T13:50:06.804Z,22.3
2017-05-12T13:52:05.353Z,22.3
2017-05-12T13:54:05.072Z,22.3
2017-05-12T13:56:10.656Z,22.3
2017-05-12T13:58:08.226Z,22.4
2017-05-12T14:00:05.717Z,22.3
2017-05-12T14:02:04.951Z,22.4
2017-05-12T14:04:04.758Z,22.4
2017-05-12T14:06:06.074Z,22.4
2017-05-12T14:08:04.803Z,22.4
2017-05-12T14:10:05.862Z,22.4
2017-05-12T14:12:04.867Z,22.4
2017-05-12T14:14:08.077Z,22.3
2017-05-12T14:16:10.136Z,22.4
2017-05-12T14:18:05.361Z,22.4
2017-05-12T14:20:05.076Z,22.4
2017-05-12T14:22:05.111Z,22.4
2017-05-12T14:24:04.849Z,22.4
2017-05-12T14:26:05.087Z,22.4
2017-05-12T14:28:10.259Z,22.4
2017-05-12T14:30:04.963Z,22.4
2017-05-12T14:32:04.750Z,22.5
2017-05-12T14:34:05.735Z,22.5
2017-05-12T14:36:05.464Z,22.5
2017-05-12T14:38:04.749Z,22.5
2017-05-12T14:40:10.670Z,22.5
2017-05-12T14:42:05.439Z,22.5
2017-05-12T14:44:04.741Z,22.5
2017-05-12T14:46:05.647Z,22.5
2017-05-12T14:48:05.417Z,22.5
2017-05-12T14:50:05.265Z,22.5
2017-05-12T14:52:05.327Z,22.5
2017-05-12T14:54:07.547Z,22.5
2017-05-12T14:56:05.290Z,22.5
2017-05-12T14:58:07.880Z,22.5
2017-05-12T15:00:08.068Z,22.5
2017-05-12T15:02:04.764Z,22.5
2017-05-12T15:04:05.767Z,22.5
2017-05-12T15:06:05.036Z,22.5
2017-05-12T15:08:04.755Z,22.5
2017-05-12T15:10:05.408Z,22.6
2017-05-12T15:12:04.734Z,22.6
2017-05-12T15:14:05.467Z,22.6
2017-05-12T15:16:10.497Z,22.6
2017-05-12T15:18:05.405Z,22.6
2017-05-12T15:20:05.274Z,22.6
2017-05-12T15:22:05.417Z,22.7
2017-05-12T15:24:10.211Z,22.7
2017-05-12T15:26:05.012Z,22.7
2017-05-12T15:28:05.087Z,22.7
2017-05-12T15:30:04.873Z,22.7
2017-05-12T15:32:05.732Z,22.7
2017-05-12T15:34:05.235Z,22.7
2017-05-12T15:36:04.962Z,22.7
2017-05-12T15:38:05.067Z,22.7
2017-05-12T15:40:05.594Z,22.8
2017-05-12T15:42:05.293Z,22.7
2017-05-12T15:44:05.547Z,22.7
2017-05-12T15:46:05.109Z,22.7
2017-05-12T15:48:04.927Z,22.7
2017-05-12T15:50:07.134Z,22.7
2017-05-12T15:52:05.176Z,22.7
2017-05-12T15:54:05.874Z,22.7
2017-05-12T15:56:08.075Z,22.7
2017-05-12T15:58:05.062Z,22.7
2017-05-12T16:00:04.768Z,22.8
2017-05-12T16:02:05.450Z,22.7
2017-05-12T16:04:07.889Z,22.8
2017-05-12T16:06:07.240Z,22.7
2017-05-12T16:08:07.479Z,22.8
2017-05-12T16:10:05.599Z,22.7
2017-05-12T16:12:05.290Z,22.7
2017-05-12T16:14:04.975Z,22.7
2017-05-12T16:16:04.895Z,22.7
2017-05-12T16:18:09.843Z,22.7
2017-05-12T16:20:05.544Z,22.7
2017-05-12T16:22:08.018Z,22.8
2017-05-12T16:24:09.814Z,22.7
2017-05-12T16:26:05.662Z,22.7
2017-05-12T16:28:05.218Z,22.7
2017-05-12T16:30:05.552Z,22.7
2017-05-12T16:32:05.226Z,22.7
2017-05-12T16:34:07.828Z,22.7
2017-05-12T16:36:10.132Z,22.7
2017-05-12T16:38:05.379Z,22.7
2017-05-12T16:40:05.361Z,22.7
2017-05-12T16:42:05.138Z,22.8
2017-05-12T16:44:04.823Z,22.7
2017-05-12T16:46:05.679Z,22.7
2017-05-12T16:48:05.357Z,22.7
2017-05-12T16:50:05.077Z,22.7
2017-05-12T16:52:05.462Z,22.7
2017-05-12T16:54:05.179Z,22.7
2017-05-12T16:56:05.099Z,22.7
2017-05-12T16:58:07.755Z,22.7
2017-05-12T17:00:05.723Z,22.7
2017-05-12T17:02:05.670Z,22.7
2017-05-12T17:04:08.164Z,22.7
2017-05-12T17:06:04.919Z,22.7
2017-05-12T17:08:07.204Z,22.7
2017-05-12T17:10:08.259Z,22.7
2017-05-12T17:12:10.032Z,22.7
2017-05-12T17:14:04.929Z,22.7
2017-05-12T17:16:05.011Z,22.7
2017-05-12T17:18:05.141Z,22.7
2017-05-12T17:20:05.126Z,22.7
2017-05-12T17:22:10.222Z,22.7
2017-05-12T17:24:05.314Z,22.7
2017-05-12T17:26:07.743Z,22.7
2017-05-12T17:28:07.795Z,22.7
2017-05-12T17:30:05.692Z,22.7
2017-05-12T17:32:06.835Z,22.7
2017-05-12T17:34:04.796Z,22.7
2017-05-12T17:36:04.694Z,22.7
2017-05-12T17:38:05.404Z,22.6
2017-05-12T17:40:05.237Z,22.7
2017-05-12T17:42:07.470Z,22.6
2017-05-12T17:44:05.242Z,22.6
2017-05-12T17:46:12.938Z,22.6
2017-05-12T17:48:04.673Z,22.6
2017-05-12T17:50:04.947Z,22.7
2017-05-12T17:52:04.916Z,22.6
2017-05-12T17:54:06.680Z,22.7
2017-05-12T17:56:06.598Z,22.6
2017-05-12T17:58:05.835Z,22.6
2017-05-12T18:00:08.137Z,22.6
2017-05-12T18:02:05.049Z,22.6
2017-05-12T18:04:04.934Z,22.6
2017-05-12T18:06:05.239Z,22.6
2017-05-12T18:08:05.030Z,22.6
2017-05-12T18:10:04.889Z,22.6
2017-05-12T18:12:07.677Z,22.6
2017-05-12T18:14:05.590Z,22.6
2017-05-12T18:16:05.449Z,22.6
2017-05-12T18:18:08.211Z,22.6
2017-05-12T18:20:04.749Z,22.6
2017-05-12T18:22:05.244Z,22.6
2017-05-12T18:24:07.782Z,22.5
2017-05-12T18:26:05.544Z,22.5
2017-05-12T18:28:05.569Z,22.6
2017-05-12T18:30:05.270Z,22.5
2017-05-12T18:32:05.543Z,22.6
2017-05-12T18:34:10.285Z,22.5
2017-05-12T18:36:04.743Z,22.6
2017-05-12T18:38:05.210Z,22.6
2017-05-12T18:40:05.882Z,22.5
2017-05-12T18:42:04.922Z,22.5
2017-05-12T18:44:04.770Z,22.5
2017-05-12T18:46:05.935Z,22.5
2017-05-12T18:48:05.087Z,22.5
2017-05-12T18:50:05.305Z,22.5
2017-05-12T18:52:05.244Z,22.5
2017-05-12T18:54:04.663Z,22.5
2017-05-12T18:56:04.897Z,22.5
2017-05-12T18:58:05.870Z,22.5
2017-05-12T19:00:05.123Z,22.5
2017-05-12T19:02:05.367Z,22.5
2017-05-12T19:04:05.805Z,22.5
2017-05-12T19:06:08.134Z,22.5
2017-05-12T19:08:09.908Z,22.5
2017-05-12T19:10:05.434Z,22.5
2017-05-12T19:12:04.684Z,22.5
2017-05-12T19:14:05.625Z,22.5
2017-05-12T19:16:05.234Z,22.5
2017-05-12T19:18:10.216Z,22.5
2017-05-12T19:20:04.938Z,22.5
2017-05-12T19:22:17.622Z,22.5
2017-05-12T19:24:05.804Z,22.5
2017-05-12T19:26:04.991Z,22.5
2017-05-12T19:28:05.092Z,22.5
2017-05-12T19:30:04.795Z,22.5
2017-05-12T19:32:05.504Z,22.5
2017-05-12T19:34:05.115Z,22.4
2017-05-12T19:36:04.774Z,22.5
2017-05-12T19:38:05.787Z,22.5
2017-05-12T19:40:08.330Z,22.4
2017-05-12T19:42:05.014Z,22.4
2017-05-12T19:44:05.312Z,22.4
2017-05-12T19:46:05.410Z,22.4
2017-05-12T19:48:05.131Z,22.4
2017-05-12T19:50:05.364Z,22.5
2017-05-12T19:52:05.421Z,22.4
2017-05-12T19:54:05.275Z,22.4
2017-05-12T19:56:04.969Z,22.4
2017-05-12T19:58:04.951Z,22.4
2017-05-12T20:00:07.227Z,22.4
2017-05-12T20:02:04.934Z,22.4
2017-05-12T20:04:09.691Z,22.4
2017-05-12T20:06:05.387Z,22.4
2017-05-12T20:08:10.622Z,22.4
2017-05-12T20:10:11.010Z,22.4
2017-05-12T20:12:05.378Z,22.4
2017-05-12T20:14:05.092Z,22.4
2017-05-12T20:16:07.666Z,22.4
2017-05-12T20:18:05.529Z,22.4
2017-05-12T20:20:05.226Z,22.4
2017-05-12T20:22:06.060Z,22.4
2017-05-12T20:24:07.292Z,22.4
2017-05-12T20:26:05.380Z,22.4
2017-05-12T20:28:05.423Z,22.4
2017-05-12T20:30:05.168Z,22.4
2017-05-12T20:32:04.981Z,22.4
2017-05-12T20:34:07.338Z,22.4
2017-05-12T20:36:07.514Z,22.4
2017-05-12T20:38:05.210Z,22.4
2017-05-12T20:40:05.171Z,22.4
2017-05-12T20:42:05.249Z,22.4
2017-05-12T20:44:04.937Z,22.4
2017-05-12T20:46:05.496Z,22.4
2017-05-12T20:48:09.766Z,22.4
2017-05-12T20:50:04.997Z,22.4
2017-05-12T20:52:05.557Z,22.4
2017-05-12T20:54:07.788Z,22.3
2017-05-12T20:56:10.553Z,22.4
2017-05-12T20:58:05.399Z,22.4
2017-05-12T21:00:07.675Z,22.4
2017-05-12T21:02:09.985Z,22.4
2017-05-12T21:04:04.856Z,22.4
2017-05-12T21:06:05.073Z,22.4
2017-05-12T21:08:04.942Z,22.4
2017-05-12T21:10:05.122Z,22.4
2017-05-12T21:12:04.823Z,22.4
2017-05-12T21:14:05.643Z,22.4
2017-05-12T21:16:05.022Z,22.3
2017-05-12T21:18:04.954Z,22.3
2017-05-12T21:20:04.887Z,22.4
2017-05-12T21:22:05.413Z,22.4
2017-05-12T21:24:07.635Z,22.4
2017-05-12T21:26:04.931Z,22.3
2017-05-12T21:28:09.888Z,22.3
2017-05-12T21:30:05.850Z,22.3
2017-05-12T21:32:07.664Z,22.3
2017-05-12T21:34:05.688Z,22.3
2017-05-12T21:36:07.914Z,22.3
2017-05-12T21:38:04.637Z,22.3
2017-05-12T21:40:05.685Z,22.4
2017-05-12T21:42:05.122Z,22.4
2017-05-12T21:44:05.312Z,22.4
2017-05-12T21:46:05.385Z,22.3
2017-05-12T21:48:05.099Z,22.3
2017-05-12T21:50:04.812Z,22.3
2017-05-12T21:52:05.934Z,22.3
2017-05-12T21:54:04.660Z,22.3
2017-05-12T22:00:05.667Z,22.3
2017-05-12T22:02:05.416Z,22.3
2017-05-12T22:04:05.127Z,22.3
2017-05-12T22:06:05.460Z,22.3
2017-05-12T22:08:05.109Z,22.3
2017-05-12T22:10:12.935Z,22.3
2017-05-12T22:12:05.013Z,22.3
2017-05-12T22:14:05.240Z,22.3
2017-05-12T22:16:05.349Z,22.3
2017-05-12T22:18:07.710Z,22.3
2017-05-12T22:20:07.694Z,22.3
2017-05-12T22:22:10.646Z,22.3
2017-05-12T22:24:10.885Z,22.3
2017-05-12T22:26:05.466Z,22.3
2017-05-12T22:28:05.443Z,22.3
2017-05-12T22:30:05.279Z,22.3
2017-05-12T22:32:05.338Z,22.3
2017-05-12T22:34:10.637Z,22.3
2017-05-12T22:36:05.512Z,22.3
2017-05-12T22:38:07.239Z,22.3
2017-05-12T22:40:04.992Z,22.3
2017-05-12T22:42:05.041Z,22.3
2017-05-12T22:44:04.754Z,22.3
2017-05-12T22:46:10.509Z,22.3
2017-05-12T22:48:07.592Z,22.3
2017-05-12T22:50:05.319Z,22.3
2017-05-12T22:52:05.086Z,22.3
2017-05-12T22:54:07.550Z,22.3
2017-05-12T22:56:05.226Z,22.3
2017-05-12T22:58:04.947Z,22.3
2017-05-12T23:00:07.416Z,22.3
2017-05-12T23:02:05.114Z,22.3
2017-05-12T23:04:05.177Z,22.3
2017-05-12T23:06:05.281Z,22.3
2017-05-12T23:08:05.515Z,22.3
2017-05-12T23:10:05.173Z,22.3
2017-05-12T23:12:07.729Z,22.3
2017-05-12T23:14:12.635Z,22.3
2017-05-12T23:16:05.376Z,22.3
2017-05-12T23:18:07.406Z,22.3
2017-05-12T23:20:05.386Z,22.3
2017-05-12T23:22:07.621Z,22.3
2017-05-12T23:24:05.738Z,22.3
2017-05-12T23:26:05.443Z,22.3
2017-05-12T23:28:05.127Z,22.2
2017-05-12T23:30:05.531Z,22.3
2017-05-12T23:32:05.299Z,22.3
2017-05-12T23:34:05.482Z,22.3
2017-05-12T23:36:05.472Z,22.3
2017-05-12T23:38:05.146Z,22.3
2017-05-12T23:40:09.971Z,22.3
2017-05-12T23:42:05.059Z,22.3
2017-05-12T23:44:04.832Z,22.3
2017-05-12T23:46:05.535Z,22.3
2017-05-12T23:48:08.070Z,22.3
2017-05-12T23:50:04.810Z,22.3
2017-05-12T23:52:05.862Z,22.3
2017-05-12T23:54:05.641Z,22.3
2017-05-12T23:56:05.329Z,22.3
2017-05-12T23:58:05.018Z,22.3
